createdAt,value
2019-03-05T00:01:54.355Z,59.29
2019-03-05T00:04:25.148Z,59.41
2019-03-05T00:06:56.511Z,59.34
2019-03-05T00:09:27.443Z,59.21
2019-03-05T00:11:58.086Z,59.25
2019-03-05T00:14:28.913Z,59.24
2019-03-05T00:16:59.626Z,59.56
2019-03-05T00:19:30.517Z,59.56
2019-03-05T00:22:01.108Z,59.38
2019-03-05T00:25:02.520Z,59.40
2019-03-05T00:27:55.663Z,59.40
2019-03-05T00:30:53.037Z,59.22
2019-03-05T00:34:07.392Z,59.22
2019-03-05T00:36:44.773Z,59.29
2019-03-05T00:40:05.178Z,59.29
2019-03-05T00:43:20.576Z,59.76
2019-03-05T00:46:13.715Z,59.79
2019-03-05T00:49:21.072Z,59.57
2019-03-05T00:52:15.666Z,59.82
2019-03-05T00:55:02.225Z,60.11
2019-03-05T00:58:03.168Z,60.29
2019-03-05T01:01:09.426Z,60.46
2019-03-05T01:03:56.315Z,60.54
2019-03-05T01:06:28.634Z,60.72
2019-03-05T01:08:59.555Z,60.72
2019-03-05T01:11:30.077Z,60.62
2019-03-05T01:14:01.425Z,60.32
2019-03-05T01:16:33.713Z,60.56
2019-03-05T01:19:04.518Z,60.38
2019-03-05T01:21:35.400Z,60.46
2019-03-05T01:24:07.246Z,60.42
2019-03-05T01:26:37.826Z,59.98
2019-03-05T01:29:08.999Z,59.77
2019-03-05T01:32:13.752Z,59.77
2019-03-05T01:35:03.757Z,59.76
2019-03-05T01:37:34.420Z,59.75
2019-03-05T01:40:14.435Z,59.45
2019-03-05T01:42:45.825Z,60.03
2019-03-05T01:45:17.068Z,60.04
2019-03-05T01:47:47.860Z,60.04
2019-03-05T01:50:18.448Z,59.41
2019-03-05T01:52:49.085Z,59.40
2019-03-05T01:55:19.976Z,59.41
2019-03-05T01:57:50.758Z,59.48
2019-03-05T02:00:21.630Z,59.65
2019-03-05T02:02:52.417Z,59.65
2019-03-05T02:05:23.102Z,59.48
2019-03-05T02:07:54.283Z,59.60
2019-03-05T02:10:24.954Z,59.72
2019-03-05T02:12:55.761Z,60.11
2019-03-05T02:15:27.743Z,60.11
2019-03-05T02:17:59.553Z,60.30
2019-03-05T02:20:30.626Z,60.35
2019-03-05T02:23:37.386Z,60.42
2019-03-05T02:26:42.567Z,60.56
2019-03-05T02:29:43.246Z,60.87
2019-03-05T02:32:40.229Z,61.01
2019-03-05T02:35:51.298Z,60.93
2019-03-05T02:38:57.975Z,61.09
2019-03-05T02:42:02.601Z,60.90
2019-03-05T02:44:52.713Z,61.13
2019-03-05T02:48:14.657Z,60.91
2019-03-05T02:51:14.810Z,61.03
2019-03-05T02:54:25.938Z,60.93
2019-03-05T02:57:10.152Z,60.90
2019-03-05T02:59:41.060Z,60.81
2019-03-05T03:02:30.188Z,60.80
2019-03-05T03:05:10.363Z,60.75
2019-03-05T03:07:40.947Z,60.98
2019-03-05T03:10:16.498Z,60.48
2019-03-05T03:12:48.672Z,60.60
2019-03-05T03:15:21.285Z,60.40
2019-03-05T03:17:53.478Z,60.40
2019-03-05T03:20:24.800Z,60.44
2019-03-05T03:22:55.434Z,60.66
2019-03-05T03:25:26.355Z,60.72
2019-03-05T03:27:56.909Z,60.54
2019-03-05T03:30:28.562Z,60.32
2019-03-05T03:32:59.413Z,60.74
2019-03-05T03:35:51.528Z,60.74
2019-03-05T03:38:22.827Z,60.66
2019-03-05T03:40:53.711Z,60.45
2019-03-05T03:43:24.515Z,60.52
2019-03-05T03:45:55.393Z,60.52
2019-03-05T03:48:26.242Z,60.51
2019-03-05T03:50:57.767Z,60.64
2019-03-05T03:53:28.792Z,60.64
2019-03-05T03:56:00.966Z,61.35
2019-03-05T03:58:31.798Z,61.35
2019-03-05T04:01:02.584Z,61.40
2019-03-05T04:03:33.167Z,61.57
2019-03-05T04:06:04.009Z,61.57
2019-03-05T04:08:34.693Z,61.41
2019-03-05T04:11:05.377Z,61.70
2019-03-05T04:13:36.065Z,62.71
2019-03-05T04:16:06.865Z,63.19
2019-03-05T04:18:37.706Z,63.57
2019-03-05T04:21:08.409Z,63.64
2019-03-05T04:23:39.081Z,63.39
2019-03-05T04:26:09.873Z,63.27
2019-03-05T04:28:40.859Z,63.54
2019-03-05T04:31:11.557Z,63.56
2019-03-05T04:33:42.626Z,63.51
2019-03-05T04:36:13.197Z,63.81
2019-03-05T04:38:44.372Z,63.99
2019-03-05T04:41:15.045Z,64.16
2019-03-05T04:43:45.824Z,64.42
2019-03-05T04:46:35.252Z,65.00
2019-03-05T04:49:43.467Z,65.27
2019-03-05T04:52:16.766Z,65.07
2019-03-05T04:54:48.567Z,64.95
2019-03-05T04:57:19.330Z,65.14
2019-03-05T04:59:50.126Z,65.42
2019-03-05T05:02:20.763Z,65.44
2019-03-05T05:04:51.350Z,65.28
2019-03-05T05:07:22.178Z,65.12
2019-03-05T05:09:53.219Z,65.05
2019-03-05T05:12:23.942Z,64.85
2019-03-05T05:15:14.728Z,64.59
2019-03-05T05:17:45.638Z,64.62
2019-03-05T05:20:16.436Z,64.62
2019-03-05T05:22:47.235Z,64.57
2019-03-05T05:25:18.338Z,64.37
2019-03-05T05:27:49.027Z,63.46
2019-03-05T05:30:32.069Z,63.65
2019-03-05T05:33:03.393Z,63.65
2019-03-05T05:35:34.283Z,63.04
2019-03-05T05:38:05.260Z,62.80
2019-03-05T05:40:40.141Z,62.42
2019-03-05T05:43:22.470Z,62.42
2019-03-05T05:45:53.889Z,61.42
2019-03-05T05:48:24.423Z,60.92
2019-03-05T05:50:56.071Z,60.00
2019-03-05T05:53:27.090Z,59.31
2019-03-05T05:55:58.746Z,58.72
2019-03-05T05:58:29.456Z,57.89
2019-03-05T06:01:02.879Z,56.77
2019-03-05T06:03:33.597Z,55.50
2019-03-05T06:06:04.595Z,54.36
2019-03-05T06:08:37.886Z,52.70
2019-03-05T06:11:08.762Z,51.49
2019-03-05T06:13:39.566Z,50.58
2019-03-05T06:16:10.460Z,50.23
2019-03-05T06:18:41.149Z,49.15
2019-03-05T06:21:11.785Z,47.85
2019-03-05T06:23:42.336Z,46.18
2019-03-05T06:26:12.664Z,44.61
2019-03-05T06:28:43.277Z,42.98
2019-03-05T06:31:14.002Z,42.57
2019-03-05T06:33:44.425Z,43.38
2019-03-05T06:36:15.164Z,43.94
2019-03-05T06:38:46.945Z,44.50
2019-03-05T06:41:17.514Z,45.07
2019-03-05T06:43:47.928Z,45.48
2019-03-05T06:46:18.603Z,46.37
2019-03-05T06:48:49.297Z,47.52
2019-03-05T06:51:20.888Z,48.51
2019-03-05T06:53:51.783Z,49.17
2019-03-05T06:56:22.484Z,49.55
2019-03-05T06:58:53.019Z,50.28
2019-03-05T07:01:23.645Z,51.01
2019-03-05T07:03:54.655Z,51.68
2019-03-05T07:06:50.205Z,52.35
2019-03-05T07:09:46.756Z,52.25
2019-03-05T07:12:30.482Z,52.41
2019-03-05T07:15:25.709Z,52.52
2019-03-05T07:18:02.650Z,52.30
2019-03-05T07:21:03.981Z,52.53
2019-03-05T07:24:12.522Z,52.15
2019-03-05T07:26:42.859Z,52.27
2019-03-05T07:29:13.491Z,52.43
2019-03-05T07:31:44.381Z,52.08
2019-03-05T07:34:20.523Z,51.80
2019-03-05T07:36:51.195Z,51.60
2019-03-05T07:39:23.952Z,51.47
2019-03-05T07:41:54.653Z,51.36
2019-03-05T07:44:25.455Z,50.97
2019-03-05T07:46:56.031Z,51.01
2019-03-05T07:49:26.776Z,50.44
2019-03-05T07:51:57.577Z,50.15
2019-03-05T07:54:28.303Z,50.05
2019-03-05T07:57:00.750Z,49.48
2019-03-05T07:59:31.450Z,49.55
2019-03-05T08:02:02.064Z,48.98
2019-03-05T08:04:32.766Z,48.44
2019-03-05T08:07:03.615Z,48.28
2019-03-05T08:09:41.075Z,48.29
2019-03-05T08:12:38.681Z,47.97
2019-03-05T08:15:48.458Z,47.88
2019-03-05T08:18:19.331Z,47.67
2019-03-05T08:20:50.184Z,47.16
2019-03-05T08:23:20.807Z,47.25
2019-03-05T08:25:52.117Z,47.08
2019-03-05T08:28:22.876Z,46.16
2019-03-05T08:30:54.033Z,45.95
2019-03-05T08:33:24.846Z,46.09
2019-03-05T08:35:55.750Z,45.69
2019-03-05T08:38:26.653Z,45.33
2019-03-05T08:40:57.849Z,44.44
2019-03-05T08:43:28.571Z,44.06
2019-03-05T08:45:59.735Z,44.14
2019-03-05T08:48:30.550Z,43.63
2019-03-05T08:51:01.331Z,43.56
2019-03-05T08:53:32.452Z,42.22
2019-03-05T08:56:05.606Z,42.35
2019-03-05T08:58:36.157Z,41.98
2019-03-05T09:01:07.999Z,42.05
2019-03-05T09:03:39.014Z,41.74
2019-03-05T09:06:09.998Z,41.44
2019-03-05T09:08:40.870Z,40.92
2019-03-05T09:11:12.801Z,40.27
2019-03-05T09:13:43.582Z,39.87
2019-03-05T09:16:14.266Z,40.12
2019-03-05T09:18:45.007Z,40.57
2019-03-05T09:21:15.923Z,40.36
2019-03-05T09:23:48.588Z,40.48
2019-03-05T09:26:20.901Z,40.42
2019-03-05T09:28:51.543Z,40.28
2019-03-05T09:31:22.294Z,39.61
2019-03-05T09:33:53.005Z,39.46
2019-03-05T09:36:23.538Z,40.03
2019-03-05T09:38:54.179Z,39.83
2019-03-05T09:41:24.637Z,39.59
2019-03-05T09:43:56.387Z,39.04
2019-03-05T09:46:27.268Z,38.22
2019-03-05T09:48:58.015Z,38.01
2019-03-05T09:51:28.908Z,38.17
2019-03-05T09:53:59.608Z,38.72
2019-03-05T09:56:31.009Z,38.21
2019-03-05T09:59:01.811Z,37.74
2019-03-05T10:01:32.459Z,37.45
2019-03-05T10:04:03.613Z,37.46
2019-03-05T10:06:34.235Z,37.45
2019-03-05T10:09:06.000Z,36.99
2019-03-05T10:11:36.875Z,37.02
2019-03-05T10:14:07.853Z,36.58
2019-03-05T10:16:38.963Z,36.46
2019-03-05T10:19:09.863Z,35.58
2019-03-05T10:21:46.302Z,34.07
2019-03-05T10:24:13.032Z,34.34
2019-03-05T10:26:45.946Z,34.08
2019-03-05T10:29:16.888Z,33.96
2019-03-05T10:31:47.894Z,33.60
2019-03-05T10:34:18.611Z,33.54
2019-03-05T10:36:49.483Z,33.47
2019-03-05T10:39:30.991Z,33.88
2019-03-05T10:42:00.618Z,33.92
2019-03-05T10:44:32.905Z,33.89
2019-03-05T10:47:03.810Z,30.67
2019-03-05T10:49:34.438Z,30.07
2019-03-05T10:52:05.383Z,29.99
2019-03-05T10:54:35.931Z,29.46
2019-03-05T10:57:07.520Z,29.87
2019-03-05T10:59:39.567Z,29.75
2019-03-05T11:02:10.584Z,29.81
2019-03-05T11:04:45.667Z,28.72
2019-03-05T11:07:14.051Z,27.99
2019-03-05T11:09:45.045Z,25.94
2019-03-05T11:12:15.924Z,25.52
2019-03-05T11:14:46.790Z,25.50
2019-03-05T11:17:17.780Z,25.71
2019-03-05T11:19:48.728Z,25.91
2019-03-05T11:22:19.535Z,26.16
2019-03-05T11:24:50.142Z,26.53
2019-03-05T11:27:20.820Z,26.53
2019-03-05T11:29:51.445Z,26.69
2019-03-05T11:32:22.989Z,26.44
2019-03-05T11:34:53.865Z,26.32
2019-03-05T11:37:24.917Z,26.66
2019-03-05T11:39:55.830Z,26.94
2019-03-05T11:42:26.599Z,27.25
2019-03-05T11:45:07.155Z,27.17
2019-03-05T11:47:30.669Z,27.55
2019-03-05T11:50:01.405Z,27.75
2019-03-05T11:52:32.097Z,27.96
2019-03-05T11:55:02.991Z,28.03
2019-03-05T11:57:37.630Z,28.14
2019-03-05T12:00:11.312Z,27.81
2019-03-05T12:02:42.138Z,27.79
2019-03-05T12:05:13.076Z,27.44
2019-03-05T12:07:46.090Z,27.51
2019-03-05T12:10:18.933Z,27.12
2019-03-05T12:12:49.833Z,27.18
2019-03-05T12:15:20.824Z,27.13
2019-03-05T12:17:51.803Z,27.23
2019-03-05T12:20:22.484Z,27.40
2019-03-05T12:22:53.399Z,27.62
2019-03-05T12:25:24.496Z,27.99
2019-03-05T12:27:56.532Z,28.08
2019-03-05T12:30:27.428Z,28.12
2019-03-05T12:32:58.020Z,28.32
2019-03-05T12:35:28.859Z,28.32
2019-03-05T12:37:59.867Z,28.40
2019-03-05T12:40:30.812Z,28.45
2019-03-05T12:43:01.980Z,28.57
2019-03-05T12:45:32.715Z,28.33
2019-03-05T12:48:03.518Z,28.93
2019-03-05T12:50:34.414Z,28.87
2019-03-05T12:53:06.749Z,28.68
2019-03-05T12:55:38.993Z,28.75
2019-03-05T12:58:09.566Z,28.80
2019-03-05T13:00:41.955Z,28.84
2019-03-05T13:03:12.917Z,29.17
2019-03-05T13:05:44.041Z,29.02
2019-03-05T13:08:14.937Z,29.14
2019-03-05T13:10:46.115Z,28.99
2019-03-05T13:13:17.019Z,29.17
2019-03-05T13:15:47.889Z,29.34
2019-03-05T13:18:20.335Z,29.43
2019-03-05T13:20:51.012Z,29.62
2019-03-05T13:23:21.922Z,29.44
2019-03-05T13:25:52.721Z,29.86
2019-03-05T13:28:23.404Z,30.13
2019-03-05T13:30:54.474Z,30.27
2019-03-05T13:33:25.267Z,30.51
2019-03-05T13:35:56.097Z,30.27
2019-03-05T13:38:26.946Z,30.79
2019-03-05T13:40:58.126Z,30.32
2019-03-05T13:43:29.003Z,30.38
2019-03-05T13:46:00.072Z,30.44
2019-03-05T13:49:09.206Z,30.72
2019-03-05T13:52:20.534Z,30.79
2019-03-05T13:55:15.158Z,30.70
2019-03-05T13:58:22.237Z,30.86
2019-03-05T14:00:53.198Z,30.57
2019-03-05T14:03:34.811Z,30.77
2019-03-05T14:06:40.710Z,30.42
2019-03-05T14:09:19.344Z,30.50
2019-03-05T14:11:51.613Z,30.42
2019-03-05T14:14:28.446Z,30.52
2019-03-05T14:17:25.628Z,30.84
2019-03-05T14:19:56.667Z,30.87
2019-03-05T14:22:27.547Z,30.84
2019-03-05T14:25:02.582Z,30.26
2019-03-05T14:27:30.908Z,30.38
2019-03-05T14:30:03.065Z,30.36
2019-03-05T14:32:34.364Z,30.49
2019-03-05T14:35:14.016Z,30.24
2019-03-05T14:37:45.191Z,30.48
2019-03-05T14:40:24.536Z,30.41
2019-03-05T14:42:54.586Z,30.51
2019-03-05T14:45:28.585Z,30.73
2019-03-05T14:48:00.936Z,30.86
2019-03-05T14:50:31.926Z,31.26
2019-03-05T14:53:02.668Z,31.41
2019-03-05T14:55:34.154Z,31.76
2019-03-05T14:58:06.904Z,31.62
2019-03-05T15:00:38.225Z,31.92
2019-03-05T15:03:09.143Z,31.87
2019-03-05T15:05:40.031Z,31.95
2019-03-05T15:08:12.266Z,32.37
2019-03-05T15:10:42.907Z,32.45
2019-03-05T15:13:17.349Z,32.52
2019-03-05T15:15:46.406Z,32.83
2019-03-05T15:18:17.916Z,32.93
2019-03-05T15:20:48.754Z,33.15
2019-03-05T15:23:19.317Z,33.20
2019-03-05T15:25:50.045Z,33.43
2019-03-05T15:28:21.059Z,33.54
2019-03-05T15:30:52.015Z,33.59
2019-03-05T15:33:22.682Z,33.95
2019-03-05T15:35:53.290Z,34.18
2019-03-05T15:38:25.169Z,34.21
2019-03-05T15:40:57.314Z,34.06
2019-03-05T15:43:28.227Z,34.24
2019-03-05T15:45:59.251Z,34.50
2019-03-05T15:48:29.975Z,34.43
2019-03-05T15:51:00.837Z,34.51
2019-03-05T15:53:31.765Z,34.66
2019-03-05T15:56:02.594Z,34.76
2019-03-05T15:58:35.390Z,34.93
2019-03-05T16:01:09.811Z,35.00
2019-03-05T16:03:40.288Z,34.85
2019-03-05T16:06:13.894Z,35.11
2019-03-05T16:08:43.916Z,35.20
2019-03-05T16:11:14.990Z,35.43
2019-03-05T16:13:46.904Z,35.55
2019-03-05T16:16:19.190Z,35.72
2019-03-05T16:18:50.237Z,35.78
2019-03-05T16:21:21.183Z,35.79
2019-03-05T16:23:51.962Z,35.94
2019-03-05T16:26:24.679Z,36.04
2019-03-05T16:28:55.707Z,36.14
2019-03-05T16:31:36.664Z,36.23
2019-03-05T16:34:40.680Z,36.28
2019-03-05T16:37:26.252Z,36.47
2019-03-05T16:40:05.116Z,36.65
2019-03-05T16:42:51.275Z,36.94
2019-03-05T16:45:34.504Z,37.04
2019-03-05T16:48:36.467Z,37.10
2019-03-05T16:51:26.529Z,37.26
2019-03-05T16:54:22.616Z,37.42
2019-03-05T16:57:27.228Z,37.45
2019-03-05T17:00:19.164Z,37.44
2019-03-05T17:03:12.017Z,37.61
2019-03-05T17:05:56.203Z,37.79
2019-03-05T17:08:58.353Z,37.76
2019-03-05T17:11:59.990Z,38.18
2019-03-05T17:14:31.312Z,38.28
2019-03-05T17:17:05.761Z,38.57
2019-03-05T17:19:36.360Z,38.74
2019-03-05T17:22:08.295Z,38.69
2019-03-05T17:24:39.125Z,38.70
2019-03-05T17:27:10.234Z,38.87
2019-03-05T17:29:41.004Z,38.63
2019-03-05T17:32:12.675Z,38.60
2019-03-05T17:34:44.026Z,38.87
2019-03-05T17:37:18.605Z,38.91
2019-03-05T17:39:49.490Z,39.11
2019-03-05T17:42:20.508Z,39.34
2019-03-05T17:44:51.828Z,39.42
2019-03-05T17:47:24.479Z,39.40
2019-03-05T17:49:55.377Z,39.46
2019-03-05T17:52:26.098Z,39.63
2019-03-05T17:54:56.868Z,39.74
2019-03-05T17:57:27.820Z,39.64
2019-03-05T17:59:58.838Z,39.67
2019-03-05T18:02:29.718Z,39.76
2019-03-05T18:05:00.549Z,39.93
2019-03-05T18:07:31.757Z,40.04
2019-03-05T18:10:02.699Z,40.01
2019-03-05T18:12:33.697Z,40.03
2019-03-05T18:15:04.996Z,39.97
2019-03-05T18:17:36.311Z,39.96
2019-03-05T18:20:09.464Z,40.06
2019-03-05T18:22:40.379Z,40.27
2019-03-05T18:25:13.384Z,40.28
2019-03-05T18:27:45.445Z,40.29
2019-03-05T18:30:19.668Z,40.56
2019-03-05T18:32:52.050Z,40.50
2019-03-05T18:35:24.108Z,40.58
2019-03-05T18:37:54.884Z,40.88
2019-03-05T18:40:27.476Z,40.86
2019-03-05T18:42:58.392Z,40.95
2019-03-05T18:45:30.632Z,40.96
2019-03-05T18:48:02.506Z,41.36
2019-03-05T18:50:36.277Z,41.19
2019-03-05T18:53:27.122Z,41.34
2019-03-05T18:55:58.020Z,41.25
2019-03-05T18:58:28.606Z,41.62
2019-03-05T19:00:59.434Z,41.61
2019-03-05T19:03:30.448Z,41.75
2019-03-05T19:06:01.280Z,41.67
2019-03-05T19:08:32.093Z,41.81
2019-03-05T19:11:03.188Z,41.97
2019-03-05T19:13:34.369Z,41.95
2019-03-05T19:16:05.445Z,42.04
2019-03-05T19:18:36.664Z,42.13
2019-03-05T19:21:07.911Z,42.34
2019-03-05T19:23:38.742Z,42.44
2019-03-05T19:26:11.168Z,42.58
2019-03-05T19:28:43.418Z,42.30
2019-03-05T19:31:14.194Z,42.14
2019-03-05T19:33:45.066Z,42.18
2019-03-05T19:36:20.362Z,42.17
2019-03-05T19:38:51.210Z,42.14
2019-03-05T19:41:23.132Z,41.99
2019-03-05T19:43:54.367Z,41.83
2019-03-05T19:46:25.603Z,41.77
2019-03-05T19:48:57.769Z,41.77
2019-03-05T19:51:28.572Z,41.73
2019-03-05T19:53:59.539Z,41.51
2019-03-05T19:56:31.969Z,41.40
2019-03-05T19:59:02.617Z,41.35
2019-03-05T20:01:45.597Z,41.25
2019-03-05T20:04:16.634Z,41.05
2019-03-05T20:06:49.171Z,40.90
2019-03-05T20:09:21.829Z,41.02
2019-03-05T20:11:53.401Z,41.23
2019-03-05T20:14:24.348Z,40.99
2019-03-05T20:16:58.590Z,40.87
2019-03-05T20:19:29.494Z,40.90
2019-03-05T20:22:00.484Z,40.67
2019-03-05T20:24:32.565Z,40.67
2019-03-05T20:27:03.283Z,40.63
2019-03-05T20:29:34.132Z,40.39
2019-03-05T20:32:06.651Z,40.34
2019-03-05T20:34:37.274Z,40.25
2019-03-05T20:37:08.250Z,40.16
2019-03-05T20:39:39.003Z,40.35
2019-03-05T20:42:09.934Z,40.51
2019-03-05T20:44:40.455Z,40.56
2019-03-05T20:47:11.527Z,40.72
2019-03-05T20:49:42.896Z,40.52
2019-03-05T20:52:14.790Z,40.34
2019-03-05T20:54:45.389Z,40.33
2019-03-05T20:57:16.163Z,40.19
2019-03-05T20:59:48.490Z,40.31
2019-03-05T21:02:20.619Z,40.28
2019-03-05T21:04:51.324Z,40.18
2019-03-05T21:07:22.169Z,40.32
2019-03-05T21:09:53.474Z,40.19
2019-03-05T21:12:24.164Z,40.20
2019-03-05T21:14:55.134Z,40.29
2019-03-05T21:17:27.045Z,40.21
2019-03-05T21:19:57.846Z,40.46
2019-03-05T21:22:30.436Z,40.13
2019-03-05T21:25:01.474Z,40.22
2019-03-05T21:27:32.110Z,40.31
2019-03-05T21:30:03.255Z,40.22
2019-03-05T21:32:34.269Z,40.17
2019-03-05T21:35:04.935Z,40.28
2019-03-05T21:37:35.970Z,39.88
2019-03-05T21:40:07.781Z,39.83
2019-03-05T21:42:39.583Z,39.78
2019-03-05T21:45:11.560Z,39.73
2019-03-05T21:47:42.392Z,40.48
2019-03-05T21:50:15.996Z,41.79
2019-03-05T21:52:47.286Z,42.59
2019-03-05T21:55:18.563Z,43.10
2019-03-05T21:57:49.293Z,43.17
2019-03-05T22:00:22.573Z,44.86
2019-03-05T22:02:53.341Z,44.49
2019-03-05T22:05:24.537Z,45.21
2019-03-05T22:07:55.114Z,45.13
2019-03-05T22:10:26.179Z,45.30
2019-03-05T22:12:57.047Z,47.59
2019-03-05T22:15:29.175Z,49.18
2019-03-05T22:17:59.923Z,49.75
2019-03-05T22:20:30.540Z,51.89
2019-03-05T22:23:01.540Z,53.90
2019-03-05T22:25:32.219Z,57.40
2019-03-05T22:28:03.145Z,60.27
2019-03-05T22:30:34.118Z,62.27
2019-03-05T22:33:04.843Z,64.25
2019-03-05T22:35:35.666Z,65.18
2019-03-05T22:38:06.433Z,66.40
2019-03-05T22:40:37.260Z,67.23
2019-03-05T22:43:07.873Z,66.31
2019-03-05T22:45:39.124Z,66.67
2019-03-05T22:48:10.251Z,66.67
2019-03-05T22:50:41.221Z,66.57
2019-03-05T22:53:12.026Z,66.91
2019-03-05T22:55:43.120Z,66.71
2019-03-05T22:58:14.201Z,66.36
2019-03-05T23:01:17.782Z,66.71
2019-03-05T23:03:57.438Z,68.13
2019-03-05T23:06:30.020Z,67.50
2019-03-05T23:09:00.924Z,68.78
2019-03-05T23:11:32.118Z,68.56
2019-03-05T23:14:03.282Z,69.14
2019-03-05T23:16:34.207Z,70.01
2019-03-05T23:19:05.229Z,70.26
2019-03-05T23:21:37.933Z,70.80
2019-03-05T23:24:09.149Z,71.58
2019-03-05T23:26:39.819Z,71.20
2019-03-05T23:29:12.025Z,70.85
2019-03-05T23:31:43.000Z,70.72
2019-03-05T23:34:18.250Z,70.70
2019-03-05T23:36:48.145Z,70.70
2019-03-05T23:39:19.983Z,70.20
2019-03-05T23:41:51.761Z,71.74
2019-03-05T23:44:22.492Z,71.85
2019-03-05T23:46:55.166Z,71.85
2019-03-05T23:49:27.120Z,71.73
2019-03-05T23:52:01.040Z,72.28
2019-03-05T23:54:31.866Z,72.47
2019-03-05T23:57:02.607Z,73.38
2019-03-05T23:59:35.494Z,73.31
